createdAt,value
2023-11-18T00:00:12.468Z,51.20
2023-11-18T00:02:40.759Z,51.19
2023-11-18T00:05:08.885Z,51.64
2023-11-18T00:07:36.703Z,52.09
2023-11-18T00:10:05.768Z,51.21
2023-11-18T00:12:36.972Z,51.86
2023-11-18T00:15:05.596Z,51.58
2023-11-18T00:17:34.726Z,52.10
2023-11-18T00:20:02.418Z,52.16
2023-11-18T00:22:30.873Z,52.03
2023-11-18T00:24:57.999Z,52.95
2023-11-18T00:27:26.329Z,52.17
2023-11-18T00:29:54.416Z,52.01
2023-11-18T00:32:21.983Z,52.23
2023-11-18T00:34:49.283Z,52.40
2023-11-18T00:37:16.666Z,52.92
2023-11-18T00:39:43.841Z,52.53
2023-11-18T00:42:11.153Z,53.24
2023-11-18T00:44:39.070Z,52.96
2023-11-18T00:47:06.797Z,52.79
2023-11-18T00:49:35.345Z,53.28
2023-11-18T00:52:02.914Z,53.46
2023-11-18T00:54:30.326Z,53.09
2023-11-18T00:56:57.723Z,53.61
2023-11-18T00:59:24.993Z,53.62
2023-11-18T01:01:52.088Z,53.61
2023-11-18T01:04:21.215Z,53.84
2023-11-18T01:06:49.535Z,53.50
2023-11-18T01:09:17.520Z,53.78
2023-11-18T01:12:07.072Z,54.05
2023-11-18T01:14:31.911Z,53.58
2023-11-18T01:16:59.262Z,54.27
2023-11-18T01:19:26.419Z,54.35
2023-11-18T01:21:54.432Z,54.13
2023-11-18T01:24:21.619Z,53.98
2023-11-18T01:26:49.102Z,54.05
2023-11-18T01:29:16.402Z,54.79
2023-11-18T01:31:51.777Z,54.58
2023-11-18T01:34:23.931Z,54.99
2023-11-18T01:36:51.648Z,54.55
2023-11-18T01:39:19.489Z,54.98
2023-11-18T01:41:47.358Z,55.38
2023-11-18T01:44:15.057Z,55.20
2023-11-18T01:46:46.813Z,54.74
2023-11-18T01:49:15.822Z,55.27
2023-11-18T01:51:46.641Z,54.89
2023-11-18T01:54:20.381Z,55.49
2023-11-18T01:56:50.467Z,55.38
2023-11-18T01:59:21.012Z,55.43
2023-11-18T02:01:54.735Z,55.64
2023-11-18T02:04:23.029Z,55.55
2023-11-18T02:06:51.323Z,55.68
2023-11-18T02:09:20.439Z,56.19
2023-11-18T02:12:01.269Z,55.52
2023-11-18T02:14:30.123Z,56.35
2023-11-18T02:17:01.268Z,56.42
2023-11-18T02:19:31.363Z,56.36
2023-11-18T02:21:59.589Z,56.70
2023-11-18T02:24:32.362Z,56.74
2023-11-18T02:27:00.667Z,56.46
2023-11-18T02:29:33.938Z,56.59
2023-11-18T02:32:11.721Z,56.30
2023-11-18T02:34:44.923Z,56.53
2023-11-18T02:37:13.809Z,56.45
2023-11-18T02:39:45.602Z,56.08
2023-11-18T02:42:14.702Z,56.26
2023-11-18T02:44:45.018Z,56.37
2023-11-18T02:47:12.374Z,56.67
2023-11-18T02:49:40.235Z,56.88
2023-11-18T02:52:07.625Z,56.60
2023-11-18T02:54:34.755Z,56.85
2023-11-18T02:57:02.397Z,57.09
2023-11-18T02:59:32.256Z,57.34
2023-11-18T03:01:59.501Z,56.87
2023-11-18T03:04:27.094Z,57.64
2023-11-18T03:06:54.233Z,57.02
2023-11-18T03:09:21.400Z,57.05
2023-11-18T03:11:48.748Z,57.09
2023-11-18T03:14:15.906Z,57.62
2023-11-18T03:16:43.279Z,57.25
2023-11-18T03:19:10.582Z,58.25
2023-11-18T03:21:38.192Z,57.80
2023-11-18T03:24:05.966Z,57.64
2023-11-18T03:26:33.762Z,58.41
2023-11-18T03:31:46.084Z,58.35
2023-11-18T03:34:13.333Z,58.67
2023-11-18T03:36:40.499Z,58.13
2023-11-18T03:39:07.682Z,58.41
2023-11-18T03:41:34.729Z,58.48
2023-11-18T03:44:01.899Z,58.43
2023-11-18T03:46:35.869Z,58.02
2023-11-18T03:49:03.229Z,58.50
2023-11-18T03:51:30.779Z,58.23
2023-11-18T03:53:57.896Z,58.49
2023-11-18T03:56:25.500Z,58.37
2023-11-18T03:58:52.697Z,58.72
2023-11-18T04:01:29.906Z,58.47
2023-11-18T04:03:57.374Z,58.44
2023-11-18T04:06:25.702Z,58.78
2023-11-18T04:08:52.967Z,59.03
2023-11-18T04:11:20.187Z,58.59
2023-11-18T04:13:47.551Z,59.14
2023-11-18T04:16:18.063Z,59.01
2023-11-18T04:18:47.078Z,59.17
2023-11-18T04:21:14.657Z,59.26
2023-11-18T04:23:45.401Z,59.04
2023-11-18T04:26:13.277Z,59.04
2023-11-18T04:28:40.567Z,59.81
2023-11-18T04:31:07.860Z,59.20
2023-11-18T04:33:35.075Z,59.25
2023-11-18T04:36:02.734Z,59.58
2023-11-18T04:38:30.071Z,59.08
2023-11-18T04:40:57.290Z,59.29
2023-11-18T04:43:30.819Z,59.72
2023-11-18T04:46:07.824Z,59.46
2023-11-18T04:48:39.714Z,59.46
2023-11-18T04:51:08.821Z,59.76
2023-11-18T04:53:36.027Z,59.57
2023-11-18T04:56:04.229Z,59.62
2023-11-18T04:58:31.458Z,59.94
2023-11-18T05:00:58.795Z,59.60
2023-11-18T05:03:25.994Z,59.43
2023-11-18T05:05:56.041Z,59.73
2023-11-18T05:08:25.466Z,59.63
2023-11-18T05:10:53.104Z,60.15
2023-11-18T05:13:20.433Z,59.90
2023-11-18T05:15:48.543Z,59.69
2023-11-18T05:18:16.893Z,59.70
2023-11-18T05:20:45.510Z,59.39
2023-11-18T05:23:13.803Z,59.66
2023-11-18T05:25:41.577Z,59.45
2023-11-18T05:28:09.877Z,59.49
2023-11-18T05:30:37.523Z,59.07
2023-11-18T05:33:08.633Z,59.08
2023-11-18T05:35:36.385Z,59.22
2023-11-18T05:38:04.536Z,59.33
2023-11-18T05:40:31.649Z,58.72
2023-11-18T05:43:00.074Z,58.80
2023-11-18T05:45:33.120Z,58.98
2023-11-18T05:48:00.504Z,59.18
2023-11-18T05:50:28.542Z,58.72
2023-11-18T05:52:56.559Z,59.31
2023-11-18T05:55:23.776Z,59.03
2023-11-18T05:57:50.943Z,58.30
2023-11-18T06:00:25.519Z,58.60
2023-11-18T06:02:57.960Z,56.26
2023-11-18T06:05:27.679Z,52.65
2023-11-18T06:07:54.923Z,50.34
2023-11-18T06:10:22.045Z,47.18
2023-11-18T06:12:49.271Z,45.31
2023-11-18T06:15:18.413Z,43.99
2023-11-18T06:17:47.062Z,41.75
2023-11-18T06:20:15.636Z,40.70
2023-11-18T06:22:42.886Z,39.64
2023-11-18T06:25:10.340Z,37.52
2023-11-18T06:27:37.438Z,36.32
2023-11-18T06:30:05.174Z,35.03
2023-11-18T06:32:33.062Z,34.22
2023-11-18T06:35:00.206Z,33.34
2023-11-18T06:37:33.759Z,32.43
2023-11-18T06:40:01.202Z,32.01
2023-11-18T06:42:29.016Z,30.76
2023-11-18T06:44:56.158Z,29.91
2023-11-18T06:47:24.271Z,29.58
2023-11-18T06:49:53.592Z,28.85
2023-11-18T06:52:22.590Z,29.14
2023-11-18T06:54:53.168Z,29.02
2023-11-18T06:57:20.513Z,27.58
2023-11-18T06:59:47.684Z,27.05
2023-11-18T07:02:14.850Z,26.50
2023-11-18T07:04:42.057Z,25.84
2023-11-18T07:07:10.254Z,25.68
2023-11-18T07:09:37.523Z,25.77
2023-11-18T07:12:05.181Z,25.30
2023-11-18T07:14:32.306Z,24.51
2023-11-18T07:16:59.496Z,24.21
2023-11-18T07:19:26.629Z,23.59
2023-11-18T07:21:53.805Z,23.13
2023-11-18T07:24:22.022Z,23.29
2023-11-18T07:26:52.397Z,23.11
2023-11-18T07:29:20.275Z,22.01
2023-11-18T07:31:48.107Z,22.18
2023-11-18T07:34:16.386Z,22.45
2023-11-18T07:36:47.293Z,22.70
2023-11-18T07:39:17.533Z,22.54
2023-11-18T07:41:45.743Z,22.12
2023-11-18T07:44:14.540Z,21.74
2023-11-18T07:46:44.376Z,21.67
2023-11-18T07:49:12.613Z,21.75
2023-11-18T07:51:41.880Z,22.05
2023-11-18T07:54:11.475Z,21.72
2023-11-18T07:56:39.333Z,22.49
2023-11-18T07:59:09.635Z,22.38
2023-11-18T08:01:37.422Z,21.71
2023-11-18T08:04:08.108Z,21.89
2023-11-18T08:06:35.492Z,22.37
2023-11-18T08:09:04.018Z,22.24
2023-11-18T08:11:31.305Z,22.49
2023-11-18T08:14:00.231Z,21.57
2023-11-18T08:16:29.047Z,21.29
2023-11-18T08:18:57.008Z,20.75
2023-11-18T08:21:24.420Z,20.58
2023-11-18T08:23:53.871Z,20.82
2023-11-18T08:26:21.613Z,22.31
2023-11-18T08:28:49.496Z,22.25
2023-11-18T08:31:17.233Z,22.02
2023-11-18T08:33:47.876Z,21.71
2023-11-18T08:36:15.206Z,21.31
2023-11-18T08:38:45.598Z,21.68
2023-11-18T08:41:14.495Z,23.18
2023-11-18T08:43:44.968Z,24.25
2023-11-18T08:46:13.243Z,26.38
2023-11-18T08:48:40.383Z,28.51
2023-11-18T08:51:10.632Z,30.00
2023-11-18T08:53:42.528Z,31.39
2023-11-18T08:56:15.324Z,32.00
2023-11-18T08:58:50.769Z,33.82
2023-11-18T09:01:18.090Z,35.25
2023-11-18T09:03:50.005Z,36.83
2023-11-18T09:06:27.161Z,37.04
2023-11-18T09:08:55.372Z,37.29
2023-11-18T09:11:24.809Z,38.01
2023-11-18T09:13:58.624Z,38.04
2023-11-18T09:16:31.251Z,39.38
2023-11-18T09:19:03.854Z,39.77
2023-11-18T09:21:33.888Z,40.29
2023-11-18T09:24:01.103Z,40.40
2023-11-18T09:26:31.720Z,40.35
2023-11-18T09:28:59.696Z,40.43
2023-11-18T09:31:27.940Z,40.89
2023-11-18T09:33:55.261Z,41.54
2023-11-18T09:36:24.074Z,42.82
2023-11-18T09:38:51.690Z,43.14
2023-11-18T09:41:19.947Z,43.17
2023-11-18T09:43:49.286Z,43.40
2023-11-18T09:46:18.049Z,43.80
2023-11-18T09:48:54.215Z,43.87
2023-11-18T09:51:27.672Z,44.48
2023-11-18T09:53:55.656Z,44.54
2023-11-18T09:56:57.099Z,44.39
2023-11-18T09:59:36.154Z,43.72
2023-11-18T10:02:12.025Z,43.67
2023-11-18T10:04:40.648Z,43.64
2023-11-18T10:07:12.640Z,44.10
2023-11-18T10:09:40.253Z,44.54
2023-11-18T10:12:09.318Z,41.79
2023-11-18T10:14:37.474Z,39.31
2023-11-18T10:17:08.125Z,36.66
2023-11-18T10:20:14.562Z,34.92
2023-11-18T10:22:43.037Z,33.17
2023-11-18T10:25:10.173Z,32.67
2023-11-18T10:27:40.013Z,31.67
2023-11-18T10:30:20.554Z,31.67
2023-11-18T10:33:07.551Z,29.47
2023-11-18T10:35:37.085Z,29.22
2023-11-18T10:38:05.988Z,29.53
2023-11-18T10:40:40.209Z,29.27
2023-11-18T10:43:11.490Z,28.48
2023-11-18T10:45:45.153Z,28.69
2023-11-18T10:48:18.930Z,27.54
2023-11-18T10:50:48.678Z,27.41
2023-11-18T10:53:17.637Z,28.70
2023-11-18T10:55:45.541Z,28.29
2023-11-18T10:58:15.909Z,29.44
2023-11-18T11:00:57.008Z,29.32
2023-11-18T11:03:27.028Z,30.61
2023-11-18T11:05:56.280Z,31.04
2023-11-18T11:08:32.767Z,30.92
2023-11-18T11:11:09.564Z,31.58
2023-11-18T11:13:39.174Z,32.10
2023-11-18T11:16:13.691Z,32.54
2023-11-18T11:18:48.746Z,32.84
2023-11-18T11:21:26.001Z,32.98
2023-11-18T11:24:06.471Z,34.08
2023-11-18T11:26:58.184Z,33.88
2023-11-18T11:29:48.446Z,35.08
2023-11-18T11:32:53.429Z,35.00
2023-11-18T11:35:45.804Z,35.93
2023-11-18T11:38:18.086Z,36.51
2023-11-18T11:40:48.910Z,37.21
2023-11-18T11:43:22.915Z,38.31
2023-11-18T11:45:56.851Z,39.38
2023-11-18T11:48:29.338Z,38.63
2023-11-18T11:51:03.905Z,39.19
2023-11-18T11:53:40.566Z,39.11
2023-11-18T11:56:08.637Z,39.83
2023-11-18T11:58:39.426Z,39.79
2023-11-18T12:01:48.486Z,39.88
2023-11-18T12:04:29.988Z,40.62
2023-11-18T12:07:02.933Z,40.38
2023-11-18T12:09:45.362Z,41.13
2023-11-18T12:12:20.849Z,41.27
2023-11-18T12:14:53.919Z,42.01
2023-11-18T12:17:24.210Z,42.30
2023-11-18T12:19:52.707Z,42.37
2023-11-18T12:22:26.138Z,42.80
2023-11-18T12:24:59.896Z,42.84
2023-11-18T12:28:00.303Z,42.86
2023-11-18T12:30:38.360Z,43.11
2023-11-18T12:33:10.556Z,43.30
2023-11-18T12:35:39.455Z,43.25
2023-11-18T12:38:37.498Z,42.99
2023-11-18T12:41:12.483Z,43.51
2023-11-18T12:44:22.226Z,43.67
2023-11-18T12:46:56.864Z,44.24
2023-11-18T12:49:27.105Z,44.39
2023-11-18T12:51:58.127Z,44.26
2023-11-18T12:54:29.559Z,44.55
2023-11-18T12:56:57.635Z,44.62
2023-11-18T12:59:26.263Z,44.71
2023-11-18T13:01:58.789Z,44.34
2023-11-18T13:04:27.633Z,44.64
2023-11-18T13:06:55.849Z,44.93
2023-11-18T13:09:33.811Z,44.43
2023-11-18T13:12:05.537Z,44.79
2023-11-18T13:14:37.872Z,44.94
2023-11-18T13:17:10.118Z,45.04
2023-11-18T13:19:37.563Z,44.63
2023-11-18T13:22:10.273Z,45.47
2023-11-18T13:24:41.449Z,45.31
2023-11-18T13:27:15.714Z,45.20
2023-11-18T13:29:54.532Z,45.51
2023-11-18T13:32:27.676Z,45.26
2023-11-18T13:34:55.222Z,45.34
2023-11-18T13:37:24.362Z,45.64
2023-11-18T13:40:03.006Z,45.45
2023-11-18T13:42:35.393Z,46.17
2023-11-18T13:45:33.440Z,46.06
2023-11-18T13:48:04.149Z,47.07
2023-11-18T13:50:40.919Z,46.62
2023-11-18T13:53:09.651Z,45.90
2023-11-18T13:55:40.313Z,45.83
2023-11-18T13:58:08.159Z,45.79
2023-11-18T14:00:35.541Z,45.87
2023-11-18T14:03:12.400Z,46.30
2023-11-18T14:05:40.307Z,46.53
2023-11-18T14:08:14.333Z,45.88
2023-11-18T14:10:42.522Z,46.14
2023-11-18T14:13:32.950Z,46.19
2023-11-18T14:16:00.886Z,46.50
2023-11-18T14:18:28.737Z,46.27
2023-11-18T14:20:56.398Z,46.50
2023-11-18T14:23:24.218Z,47.22
2023-11-18T14:25:52.697Z,46.89
2023-11-18T14:28:26.345Z,47.29
2023-11-18T14:30:59.561Z,47.40
2023-11-18T14:33:26.702Z,46.94
2023-11-18T14:36:02.582Z,47.74
2023-11-18T14:38:30.259Z,47.75
2023-11-18T14:40:58.467Z,47.53
2023-11-18T14:43:25.745Z,47.83
2023-11-18T14:45:59.191Z,48.05
2023-11-18T14:48:29.995Z,48.25
2023-11-18T14:50:58.401Z,48.64
2023-11-18T14:53:26.316Z,47.96
2023-11-18T14:55:53.526Z,48.54
2023-11-18T14:58:20.855Z,49.23
2023-11-18T15:00:50.398Z,48.87
2023-11-18T15:03:17.831Z,49.11
2023-11-18T15:05:45.542Z,49.32
2023-11-18T15:08:14.072Z,49.35
2023-11-18T15:10:45.706Z,50.07
2023-11-18T15:13:19.552Z,50.18
2023-11-18T15:15:49.711Z,49.74
2023-11-18T15:18:21.531Z,50.20
2023-11-18T15:20:57.806Z,50.25
2023-11-18T15:23:28.197Z,49.60
2023-11-18T15:25:55.836Z,50.38
2023-11-18T15:28:23.217Z,49.82
2023-11-18T15:30:51.946Z,49.84
2023-11-18T15:33:22.399Z,51.30
2023-11-18T15:35:50.073Z,50.96
2023-11-18T15:38:24.914Z,50.62
2023-11-18T15:40:53.936Z,50.95
2023-11-18T15:43:21.312Z,50.17
2023-11-18T15:45:52.933Z,51.19
2023-11-18T15:48:20.202Z,50.31
2023-11-18T15:50:47.544Z,50.65
2023-11-18T15:53:15.803Z,51.66
2023-11-18T15:55:49.200Z,51.24
2023-11-18T15:58:17.604Z,50.82
2023-11-18T16:00:44.828Z,50.90
2023-11-18T16:03:14.997Z,51.19
2023-11-18T16:05:42.339Z,50.88
2023-11-18T16:08:10.375Z,51.38
2023-11-18T16:10:41.794Z,51.20
2023-11-18T16:13:09.296Z,51.22
2023-11-18T16:15:37.151Z,51.71
2023-11-18T16:18:05.071Z,51.15
2023-11-18T16:21:02.824Z,51.80
2023-11-18T16:23:36.585Z,51.95
2023-11-18T16:26:04.289Z,52.15
2023-11-18T16:28:31.655Z,52.18
2023-11-18T16:30:59.200Z,52.17
2023-11-18T16:33:41.946Z,52.64
2023-11-18T16:36:09.609Z,52.20
2023-11-18T16:38:36.934Z,51.99
2023-11-18T16:41:04.561Z,51.85
2023-11-18T16:43:32.452Z,51.82
2023-11-18T16:46:01.184Z,52.42
2023-11-18T16:48:30.453Z,52.33
2023-11-18T16:50:58.106Z,52.23
2023-11-18T16:53:25.808Z,51.94
2023-11-18T16:55:55.801Z,52.01
2023-11-18T16:58:23.037Z,52.81
2023-11-18T17:00:52.479Z,52.88
2023-11-18T17:03:19.783Z,52.55
2023-11-18T17:05:47.102Z,53.13
2023-11-18T17:08:15.294Z,53.00
2023-11-18T17:10:44.313Z,52.79
2023-11-18T17:13:18.240Z,52.75
2023-11-18T17:15:45.970Z,52.60
2023-11-18T17:18:13.177Z,52.95
2023-11-18T17:20:42.457Z,52.90
2023-11-18T17:23:12.436Z,53.35
2023-11-18T17:25:42.907Z,53.49
2023-11-18T17:28:18.037Z,53.12
2023-11-18T17:30:45.436Z,53.33
2023-11-18T17:33:13.118Z,53.12
2023-11-18T17:35:41.944Z,53.24
2023-11-18T17:38:10.378Z,53.54
2023-11-18T17:40:39.319Z,53.87
2023-11-18T17:43:06.485Z,53.87
2023-11-18T17:45:34.461Z,54.32
2023-11-18T17:48:08.175Z,53.85
2023-11-18T17:50:35.426Z,54.49
2023-11-18T17:53:05.305Z,54.25
2023-11-18T17:55:33.777Z,54.45
2023-11-18T17:58:01.074Z,54.79
2023-11-18T18:00:29.040Z,54.82
2023-11-18T18:02:59.212Z,54.55
2023-11-18T18:05:26.583Z,54.78
2023-11-18T18:07:56.304Z,54.97
2023-11-18T18:10:28.840Z,54.66
2023-11-18T18:12:58.170Z,54.75
2023-11-18T18:15:27.955Z,55.11
2023-11-18T18:17:56.151Z,54.76
2023-11-18T18:20:31.523Z,54.79
2023-11-18T18:23:08.109Z,54.69
2023-11-18T18:25:37.126Z,54.65
2023-11-18T18:28:05.804Z,55.12
2023-11-18T18:30:33.634Z,54.97
2023-11-18T18:33:01.165Z,55.17
2023-11-18T18:35:34.842Z,55.45
2023-11-18T18:38:02.235Z,54.96
2023-11-18T18:40:33.088Z,55.35
2023-11-18T18:43:04.309Z,55.24
2023-11-18T18:45:34.998Z,55.39
2023-11-18T18:48:03.659Z,54.94
2023-11-18T18:50:35.859Z,55.49
2023-11-18T18:53:03.543Z,55.48
2023-11-18T18:55:50.389Z,55.15
2023-11-18T18:58:17.644Z,55.78
2023-11-18T19:00:44.861Z,55.16
2023-11-18T19:03:13.126Z,55.94
2023-11-18T19:05:40.462Z,55.41
2023-11-18T19:08:12.156Z,55.41
2023-11-18T19:10:39.367Z,55.45
2023-11-18T19:13:06.779Z,55.13
2023-11-18T19:15:34.149Z,55.63
2023-11-18T19:18:01.337Z,56.22
2023-11-18T19:20:28.736Z,56.53
2023-11-18T19:22:56.615Z,56.11
2023-11-18T19:25:23.806Z,55.81
2023-11-18T19:27:51.229Z,55.23
2023-11-18T19:30:21.122Z,55.14
2023-11-18T19:32:49.803Z,55.16
2023-11-18T19:35:17.177Z,55.40
2023-11-18T19:37:44.575Z,55.37
2023-11-18T19:40:12.547Z,55.54
2023-11-18T19:42:40.066Z,55.63
2023-11-18T19:45:09.410Z,55.77
2023-11-18T19:47:37.059Z,55.82
2023-11-18T19:50:05.169Z,54.94
2023-11-18T19:52:32.692Z,54.35
2023-11-18T19:54:59.804Z,55.03
2023-11-18T19:57:27.318Z,55.01
2023-11-18T19:59:57.613Z,55.13
2023-11-18T20:02:25.069Z,55.09
2023-11-18T20:04:52.390Z,55.29
2023-11-18T20:07:22.487Z,55.12
2023-11-18T20:09:50.305Z,55.27
2023-11-18T20:12:17.545Z,55.26
2023-11-18T20:14:44.747Z,55.11
2023-11-18T20:17:12.036Z,55.63
2023-11-18T20:19:39.812Z,55.30
2023-11-18T20:22:10.840Z,55.24
2023-11-18T20:24:38.739Z,55.26
2023-11-18T20:27:05.780Z,55.19
2023-11-18T20:29:34.950Z,55.03
2023-11-18T20:32:03.605Z,54.98
2023-11-18T20:34:31.068Z,55.10
2023-11-18T20:36:58.277Z,55.43
2023-11-18T20:39:25.509Z,54.44
2023-11-18T20:41:52.700Z,54.60
2023-11-18T20:44:19.936Z,54.74
2023-11-18T20:46:47.917Z,54.78
2023-11-18T20:49:18.611Z,54.78
2023-11-18T20:51:46.067Z,54.28
2023-11-18T20:54:13.292Z,54.68
2023-11-18T20:56:40.482Z,55.27
2023-11-18T20:59:07.749Z,55.22
2023-11-18T21:01:34.805Z,55.41
2023-11-18T21:04:02.355Z,55.75
2023-11-18T21:06:31.011Z,55.68
2023-11-18T21:08:58.225Z,55.35
2023-11-18T21:11:27.310Z,55.75
2023-11-18T21:13:57.550Z,55.68
2023-11-18T21:16:24.731Z,55.39
2023-11-18T21:18:52.047Z,55.78
2023-11-18T21:21:20.095Z,55.92
2023-11-18T21:23:49.210Z,56.20
2023-11-18T21:26:16.296Z,55.94
2023-11-18T21:28:43.696Z,56.27
2023-11-18T21:31:10.897Z,56.88
2023-11-18T21:33:38.805Z,55.97
2023-11-18T21:36:06.488Z,56.95
2023-11-18T21:38:34.915Z,56.50
2023-11-18T21:41:02.121Z,56.44
2023-11-18T21:43:29.240Z,56.37
2023-11-18T21:45:56.426Z,56.30
2023-11-18T21:48:24.144Z,55.90
2023-11-18T21:50:52.153Z,56.68
2023-11-18T21:53:22.132Z,56.04
2023-11-18T21:55:55.129Z,56.16
2023-11-18T21:58:25.884Z,56.42
2023-11-18T22:00:53.237Z,56.47
2023-11-18T22:03:20.508Z,56.25
2023-11-18T22:05:48.412Z,56.36
2023-11-18T22:08:20.554Z,56.01
2023-11-18T22:10:48.842Z,55.82
2023-11-18T22:13:16.072Z,55.77
2023-11-18T22:15:43.341Z,56.38
2023-11-18T22:18:10.836Z,56.43
2023-11-18T22:20:39.288Z,55.85
2023-11-18T22:23:09.623Z,55.63
2023-11-18T22:25:37.304Z,56.05
2023-11-18T22:28:04.519Z,55.62
2023-11-18T22:30:31.761Z,55.73
2023-11-18T22:33:01.395Z,55.85
2023-11-18T22:35:31.774Z,56.35
2023-11-18T22:38:01.446Z,56.46
2023-11-18T22:40:28.611Z,56.50
2023-11-18T22:42:56.884Z,56.53
2023-11-18T22:45:24.174Z,56.46
2023-11-18T22:47:51.981Z,56.71
2023-11-18T22:50:23.075Z,56.36
2023-11-18T22:52:51.502Z,57.24
2023-11-18T22:55:20.628Z,57.26
2023-11-18T22:57:47.951Z,56.46
2023-11-18T23:00:35.197Z,56.52
2023-11-18T23:03:03.534Z,56.51
2023-11-18T23:05:30.868Z,56.71
2023-11-18T23:07:58.224Z,56.80
2023-11-18T23:10:26.305Z,57.15
2023-11-18T23:12:56.292Z,56.24
2023-11-18T23:15:25.847Z,56.22
2023-11-18T23:17:54.153Z,56.20
2023-11-18T23:20:22.579Z,56.17
2023-11-18T23:22:51.867Z,56.40
2023-11-18T23:25:24.190Z,55.42
2023-11-18T23:28:01.072Z,55.57
2023-11-18T23:30:29.696Z,55.12
2023-11-18T23:32:56.972Z,54.53
2023-11-18T23:35:24.124Z,54.54
2023-11-18T23:37:55.398Z,54.76
2023-11-18T23:40:24.256Z,53.92
2023-11-18T23:42:52.139Z,55.48
2023-11-18T23:45:20.224Z,55.29
2023-11-18T23:47:52.464Z,54.25
2023-11-18T23:50:21.238Z,54.14
2023-11-18T23:52:48.782Z,54.07
2023-11-18T23:55:16.295Z,54.05
2023-11-18T23:57:43.996Z,53.78
